createdAt,value
2023-01-17T00:00:47.900Z,87.33
2023-01-17T00:03:34.530Z,88.60
2023-01-17T00:06:38.060Z,93.64
2023-01-17T00:09:42.366Z,97.51
2023-01-17T00:12:31.062Z,100.00
2023-01-17T00:15:19.578Z,100.00
2023-01-17T00:18:04.882Z,100.00
2023-01-17T00:21:08.707Z,100.00
2023-01-17T00:24:12.304Z,100.00
2023-01-17T00:27:12.686Z,100.00
2023-01-17T00:29:58.159Z,100.00
2023-01-17T00:32:43.733Z,100.00
2023-01-17T00:35:30.777Z,100.00
2023-01-17T00:38:18.913Z,100.00
2023-01-17T00:41:11.484Z,100.00
2023-01-17T00:44:15.691Z,100.00
2023-01-17T00:47:19.285Z,100.00
2023-01-17T00:50:23.391Z,100.00
2023-01-17T00:53:27.268Z,100.00
2023-01-17T00:56:31.276Z,100.00
2023-01-17T00:59:35.220Z,100.00
2023-01-17T01:02:40.106Z,100.00
2023-01-17T01:05:44.080Z,100.00
2023-01-17T01:08:48.499Z,100.00
2023-01-17T01:11:53.024Z,100.00
2023-01-17T01:14:56.812Z,100.00
2023-01-17T01:18:00.822Z,100.00
2023-01-17T01:21:04.909Z,100.00
2023-01-17T01:24:08.906Z,100.00
2023-01-17T01:27:12.894Z,100.00
2023-01-17T01:30:16.878Z,100.00
2023-01-17T01:33:19.318Z,100.00
2023-01-17T01:36:07.896Z,100.00
2023-01-17T01:38:54.727Z,100.00
2023-01-17T01:41:40.165Z,100.00
2023-01-17T01:44:52.223Z,100.00
2023-01-17T01:47:40.665Z,100.00
2023-01-17T01:50:28.179Z,100.00
2023-01-17T01:53:13.582Z,100.00
2023-01-17T01:55:59.276Z,100.00
2023-01-17T01:58:48.666Z,100.00
2023-01-17T02:01:34.363Z,100.00
2023-01-17T02:04:21.523Z,100.00
2023-01-17T02:07:20.092Z,100.00
2023-01-17T02:10:05.594Z,100.00
2023-01-17T02:12:52.577Z,100.00
2023-01-17T02:15:50.054Z,100.00
2023-01-17T02:19:08.000Z,100.00
2023-01-17T02:22:12.412Z,100.00
2023-01-17T02:25:32.367Z,100.00
2023-01-17T02:28:58.099Z,100.00
2023-01-17T02:31:52.437Z,100.00
2023-01-17T02:34:45.465Z,100.00
2023-01-17T02:37:42.117Z,100.00
2023-01-17T02:40:52.052Z,100.00
2023-01-17T02:43:39.413Z,100.00
2023-01-17T02:46:25.165Z,100.00
2023-01-17T02:49:10.528Z,100.00
2023-01-17T02:52:00.611Z,100.00
2023-01-17T02:55:01.035Z,100.00
2023-01-17T02:58:07.038Z,100.00
2023-01-17T03:01:25.053Z,100.00
2023-01-17T03:04:23.337Z,100.00
2023-01-17T03:07:17.458Z,100.00
2023-01-17T03:10:04.912Z,100.00
2023-01-17T03:12:50.783Z,100.00
2023-01-17T03:15:36.480Z,100.00
2023-01-17T03:18:21.813Z,100.00
2023-01-17T03:21:07.459Z,100.00
2023-01-17T03:23:52.606Z,100.00
2023-01-17T03:26:37.978Z,100.00
2023-01-17T03:29:23.131Z,100.00
2023-01-17T03:32:08.708Z,100.00
2023-01-17T03:34:54.260Z,100.00
2023-01-17T03:37:39.812Z,100.00
2023-01-17T03:40:25.356Z,100.00
2023-01-17T03:43:10.787Z,100.00
2023-01-17T03:46:05.151Z,100.00
2023-01-17T03:48:50.996Z,100.00
2023-01-17T03:51:36.264Z,100.00
2023-01-17T03:54:21.486Z,100.00
2023-01-17T03:57:08.467Z,100.00
2023-01-17T03:59:54.157Z,100.00
2023-01-17T04:02:39.364Z,100.00
2023-01-17T04:05:25.037Z,100.00
2023-01-17T04:08:10.360Z,100.00
2023-01-17T04:10:55.628Z,100.00
2023-01-17T04:13:40.888Z,100.00
2023-01-17T04:16:30.048Z,100.00
2023-01-17T04:19:15.597Z,100.00
2023-01-17T04:22:00.991Z,100.00
2023-01-17T04:24:46.533Z,100.00
2023-01-17T04:27:31.982Z,100.00
2023-01-17T04:30:17.440Z,100.00
2023-01-17T04:33:02.842Z,100.00
2023-01-17T04:35:48.411Z,100.00
2023-01-17T04:38:35.050Z,100.00
2023-01-17T04:41:20.784Z,100.00
2023-01-17T04:44:05.922Z,100.00
2023-01-17T04:46:51.512Z,100.00
2023-01-17T04:49:36.806Z,100.00
2023-01-17T04:52:22.328Z,100.00
2023-01-17T04:55:08.172Z,100.00
2023-01-17T04:57:54.500Z,100.00
2023-01-17T05:00:40.105Z,100.00
2023-01-17T05:03:25.509Z,100.00
2023-01-17T05:06:10.974Z,100.00
2023-01-17T05:08:56.360Z,100.00
2023-01-17T05:11:42.051Z,100.00
2023-01-17T05:14:27.643Z,100.00
2023-01-17T05:17:13.054Z,100.00
2023-01-17T05:19:58.267Z,100.00
2023-01-17T05:22:43.770Z,100.00
2023-01-17T05:25:31.120Z,100.00
2023-01-17T05:28:16.452Z,100.00
2023-01-17T05:31:02.163Z,100.00
2023-01-17T05:33:47.804Z,100.00
2023-01-17T05:36:33.047Z,100.00
2023-01-17T05:39:18.818Z,100.00
2023-01-17T05:42:04.648Z,100.00
2023-01-17T05:44:49.912Z,100.00
2023-01-17T05:47:35.100Z,100.00
2023-01-17T05:50:34.765Z,100.00
2023-01-17T05:53:20.615Z,100.00
2023-01-17T05:56:06.244Z,100.00
2023-01-17T05:58:51.912Z,100.00
2023-01-17T06:01:37.147Z,100.00
2023-01-17T06:04:22.865Z,100.00
2023-01-17T06:07:08.421Z,100.00
2023-01-17T06:09:53.711Z,100.00
2023-01-17T06:12:38.959Z,100.00
2023-01-17T06:15:24.416Z,100.00
2023-01-17T06:18:12.176Z,100.00
2023-01-17T06:20:57.396Z,100.00
2023-01-17T06:23:42.618Z,100.00
2023-01-17T06:26:28.127Z,100.00
2023-01-17T06:29:13.711Z,100.00
2023-01-17T06:32:01.533Z,100.00
2023-01-17T06:34:47.312Z,100.00
2023-01-17T06:37:32.831Z,100.00
2023-01-17T06:40:19.249Z,100.00
2023-01-17T06:43:05.486Z,100.00
2023-01-17T06:45:51.453Z,100.00
2023-01-17T06:48:37.727Z,100.00
2023-01-17T06:51:23.364Z,100.00
2023-01-17T06:54:09.912Z,100.00
2023-01-17T06:56:55.249Z,100.00
2023-01-17T06:59:40.600Z,100.00
2023-01-17T07:02:26.229Z,100.00
2023-01-17T07:05:11.493Z,100.00
2023-01-17T07:07:57.638Z,100.00
2023-01-17T07:10:45.104Z,100.00
2023-01-17T07:13:36.153Z,100.00
2023-01-17T07:16:21.600Z,100.00
2023-01-17T07:19:07.352Z,100.00
2023-01-17T07:21:54.013Z,100.00
2023-01-17T07:24:39.614Z,100.00
2023-01-17T07:27:25.968Z,100.00
2023-01-17T07:30:11.859Z,100.00
2023-01-17T07:32:57.264Z,100.00
2023-01-17T07:35:42.975Z,100.00
2023-01-17T07:38:28.357Z,100.00
2023-01-17T07:41:14.217Z,100.00
2023-01-17T07:43:59.695Z,100.00
2023-01-17T07:46:45.045Z,100.00
2023-01-17T07:49:30.619Z,100.00
2023-01-17T07:52:18.064Z,100.00
2023-01-17T07:55:03.728Z,100.00
2023-01-17T07:57:50.629Z,100.00
2023-01-17T08:00:36.230Z,100.00
2023-01-17T08:03:21.777Z,100.00
2023-01-17T08:06:20.099Z,100.00
2023-01-17T08:09:05.364Z,100.00
2023-01-17T08:11:50.902Z,100.00
2023-01-17T08:14:36.709Z,100.00
2023-01-17T08:17:22.190Z,100.00
2023-01-17T08:20:07.898Z,100.00
2023-01-17T08:22:57.327Z,100.00
2023-01-17T08:25:42.623Z,100.00
2023-01-17T08:28:28.315Z,100.00
2023-01-17T08:31:13.678Z,100.00
2023-01-17T08:33:59.275Z,100.00
2023-01-17T08:36:45.344Z,100.00
2023-01-17T08:39:30.981Z,100.00
2023-01-17T08:42:16.725Z,100.00
2023-01-17T08:45:02.133Z,100.00
2023-01-17T08:47:47.478Z,100.00
2023-01-17T08:50:32.938Z,100.00
2023-01-17T08:53:21.520Z,100.00
2023-01-17T08:56:07.328Z,100.00
2023-01-17T08:58:53.188Z,100.00
2023-01-17T09:01:42.111Z,100.00
2023-01-17T09:04:27.829Z,100.00
2023-01-17T09:07:13.956Z,100.00
2023-01-17T09:09:59.204Z,100.00
2023-01-17T09:12:44.532Z,100.00
2023-01-17T09:15:29.878Z,100.00
2023-01-17T09:18:15.395Z,100.00
2023-01-17T09:21:16.016Z,100.00
2023-01-17T09:24:01.415Z,100.00
2023-01-17T09:26:46.889Z,100.00
2023-01-17T09:29:32.307Z,100.00
2023-01-17T09:32:17.822Z,100.00
2023-01-17T09:35:05.129Z,100.00
2023-01-17T09:37:51.254Z,100.00
2023-01-17T09:40:41.746Z,100.00
2023-01-17T09:43:36.998Z,100.00
2023-01-17T09:46:28.578Z,100.00
2023-01-17T09:49:29.516Z,100.00
2023-01-17T09:52:19.371Z,100.00
2023-01-17T09:55:07.913Z,100.00
2023-01-17T09:58:03.082Z,100.00
2023-01-17T10:01:22.124Z,100.00
2023-01-17T10:04:29.544Z,100.00
2023-01-17T10:07:54.513Z,100.00
2023-01-17T10:10:42.953Z,100.00
2023-01-17T10:14:04.854Z,100.00
2023-01-17T10:17:24.372Z,100.00
2023-01-17T10:20:33.952Z,100.00
2023-01-17T10:23:51.952Z,100.00
2023-01-17T10:26:38.175Z,100.00
2023-01-17T10:29:28.339Z,100.00
2023-01-17T10:32:14.784Z,100.00
2023-01-17T10:35:15.827Z,100.00
2023-01-17T10:38:05.800Z,95.80
2023-01-17T10:40:56.586Z,86.33
2023-01-17T10:43:50.837Z,88.08
2023-01-17T10:46:44.949Z,86.19
2023-01-17T10:49:30.601Z,87.85
2023-01-17T10:52:22.083Z,80.84
2023-01-17T10:55:47.977Z,68.54
2023-01-17T10:58:33.521Z,68.48
2023-01-17T11:01:21.396Z,63.73
2023-01-17T11:04:18.459Z,65.35
2023-01-17T11:07:29.930Z,63.54
2023-01-17T11:10:53.883Z,60.69
2023-01-17T11:13:39.416Z,61.02
2023-01-17T11:16:27.696Z,59.92
2023-01-17T11:19:25.848Z,60.32
2023-01-17T11:22:14.745Z,59.17
2023-01-17T11:25:01.147Z,59.50
2023-01-17T11:27:59.452Z,59.68
2023-01-17T11:30:56.673Z,58.78
2023-01-17T11:33:47.595Z,63.50
2023-01-17T11:36:34.008Z,58.43
2023-01-17T11:39:19.224Z,56.55
2023-01-17T11:42:06.139Z,61.13
2023-01-17T11:44:51.670Z,65.40
2023-01-17T11:47:37.061Z,61.21
2023-01-17T11:50:24.681Z,55.57
2023-01-17T11:53:31.371Z,52.81
2023-01-17T11:56:30.710Z,52.16
2023-01-17T11:59:23.363Z,46.69
2023-01-17T12:02:40.100Z,45.93
2023-01-17T12:05:40.685Z,49.14
2023-01-17T12:08:42.376Z,48.54
2023-01-17T12:12:10.283Z,51.52
2023-01-17T12:15:16.516Z,55.72
2023-01-17T12:18:22.074Z,54.59
2023-01-17T12:21:22.116Z,53.66
2023-01-17T12:24:23.765Z,51.42
2023-01-17T12:27:19.261Z,47.98
2023-01-17T12:30:33.367Z,46.05
2023-01-17T12:33:36.656Z,43.86
2023-01-17T12:36:21.876Z,46.01
2023-01-17T12:39:11.707Z,47.51
2023-01-17T12:42:03.444Z,44.75
2023-01-17T12:45:09.006Z,44.51
2023-01-17T12:48:06.006Z,42.88
2023-01-17T12:50:57.206Z,44.83
2023-01-17T12:53:54.754Z,43.77
2023-01-17T12:56:47.604Z,45.86
2023-01-17T12:59:56.367Z,48.84
2023-01-17T13:02:44.291Z,51.15
2023-01-17T13:05:36.839Z,55.44
2023-01-17T13:08:31.476Z,55.27
2023-01-17T13:11:33.418Z,60.52
2023-01-17T13:14:18.995Z,59.79
2023-01-17T13:17:33.392Z,58.24
2023-01-17T13:20:33.544Z,56.65
2023-01-17T13:23:58.940Z,52.77
2023-01-17T13:27:00.103Z,50.48
2023-01-17T13:30:31.085Z,50.04
2023-01-17T13:33:22.438Z,46.08
2023-01-17T13:36:16.640Z,45.86
2023-01-17T13:39:29.679Z,52.92
2023-01-17T13:42:29.268Z,53.79
2023-01-17T13:45:26.185Z,48.54
2023-01-17T13:48:18.034Z,49.80
2023-01-17T13:51:10.522Z,49.80
2023-01-17T13:53:56.202Z,53.34
2023-01-17T13:56:41.716Z,59.05
2023-01-17T13:59:28.972Z,62.94
2023-01-17T14:02:32.299Z,64.15
2023-01-17T14:05:47.451Z,68.39
2023-01-17T14:08:36.950Z,70.03
2023-01-17T14:11:22.373Z,70.65
2023-01-17T14:14:41.764Z,72.79
2023-01-17T14:17:44.097Z,73.44
2023-01-17T14:20:39.420Z,72.43
2023-01-17T14:23:32.689Z,73.17
2023-01-17T14:26:23.091Z,75.93
2023-01-17T14:29:42.527Z,76.83
2023-01-17T14:32:37.004Z,76.63
2023-01-17T14:35:23.576Z,77.88
2023-01-17T14:38:27.088Z,78.45
2023-01-17T14:41:23.728Z,81.03
2023-01-17T14:44:11.365Z,78.73
2023-01-17T14:46:57.987Z,80.86
2023-01-17T14:49:44.240Z,81.04
2023-01-17T14:52:29.426Z,80.43
2023-01-17T14:55:18.423Z,81.51
2023-01-17T14:58:04.679Z,79.09
2023-01-17T15:00:53.434Z,79.73
2023-01-17T15:03:55.848Z,79.31
2023-01-17T15:06:41.682Z,79.91
2023-01-17T15:09:32.513Z,79.82
2023-01-17T15:12:19.431Z,82.08
2023-01-17T15:15:05.241Z,83.13
2023-01-17T15:17:53.589Z,83.58
2023-01-17T15:20:40.995Z,83.43
2023-01-17T15:23:33.381Z,85.25
2023-01-17T15:26:22.311Z,85.23
2023-01-17T15:29:15.597Z,85.99
2023-01-17T15:32:03.720Z,86.05
2023-01-17T15:34:51.034Z,84.90
2023-01-17T15:37:39.769Z,86.32
2023-01-17T15:40:25.969Z,86.93
2023-01-17T15:43:20.130Z,87.94
2023-01-17T15:46:05.577Z,88.29
2023-01-17T15:48:51.837Z,88.31
2023-01-17T15:51:38.835Z,88.79
2023-01-17T15:54:50.665Z,89.09
2023-01-17T15:57:37.382Z,88.62
2023-01-17T16:00:32.394Z,88.67
2023-01-17T16:03:25.276Z,88.29
2023-01-17T16:06:35.140Z,89.86
2023-01-17T16:09:24.847Z,90.20
2023-01-17T16:12:10.724Z,91.74
2023-01-17T16:15:11.116Z,91.38
2023-01-17T16:18:15.308Z,91.68
2023-01-17T16:21:08.737Z,91.49
2023-01-17T16:23:54.710Z,93.18
2023-01-17T16:26:40.009Z,92.93
2023-01-17T16:29:25.981Z,94.22
2023-01-17T16:32:11.459Z,94.74
2023-01-17T16:34:57.152Z,95.50
2023-01-17T16:37:42.723Z,95.34
2023-01-17T16:40:31.402Z,96.62
2023-01-17T16:43:18.899Z,97.85
2023-01-17T16:46:04.622Z,98.73
2023-01-17T16:48:50.139Z,99.21
2023-01-17T16:51:35.781Z,99.83
2023-01-17T16:54:21.411Z,99.92
2023-01-17T16:57:06.738Z,100.00
2023-01-17T16:59:53.138Z,100.00
2023-01-17T17:02:40.529Z,100.00
2023-01-17T17:05:26.593Z,99.92
2023-01-17T17:08:12.544Z,100.00
2023-01-17T17:11:18.951Z,100.00
2023-01-17T17:14:04.274Z,100.00
2023-01-17T17:16:51.882Z,100.00
2023-01-17T17:19:37.705Z,100.00
2023-01-17T17:22:23.213Z,100.00
2023-01-17T17:25:09.898Z,100.00
2023-01-17T17:27:55.492Z,100.00
2023-01-17T17:30:41.221Z,100.00
2023-01-17T17:33:26.617Z,100.00
2023-01-17T17:36:12.195Z,100.00
2023-01-17T17:38:58.337Z,100.00
2023-01-17T17:41:45.770Z,100.00
2023-01-17T17:44:31.125Z,100.00
2023-01-17T17:47:16.533Z,100.00
2023-01-17T17:50:02.609Z,100.00
2023-01-17T17:52:48.398Z,100.00
2023-01-17T17:55:35.100Z,100.00
2023-01-17T17:58:20.883Z,100.00
2023-01-17T18:01:06.954Z,100.00
2023-01-17T18:03:54.685Z,100.00
2023-01-17T18:06:40.376Z,100.00
2023-01-17T18:09:26.090Z,100.00
2023-01-17T18:12:11.267Z,100.00
2023-01-17T18:14:56.923Z,100.00
2023-01-17T18:17:42.268Z,100.00
2023-01-17T18:20:27.810Z,100.00
2023-01-17T18:23:13.147Z,100.00
2023-01-17T18:25:58.877Z,100.00
2023-01-17T18:28:44.784Z,100.00
2023-01-17T18:31:30.853Z,100.00
2023-01-17T18:34:21.042Z,100.00
2023-01-17T18:37:06.661Z,100.00
2023-01-17T18:39:51.909Z,100.00
2023-01-17T18:42:37.622Z,100.00
2023-01-17T18:45:23.032Z,100.00
2023-01-17T18:48:08.331Z,100.00
2023-01-17T18:51:17.544Z,100.00
2023-01-17T18:54:06.808Z,100.00
2023-01-17T18:56:54.902Z,100.00
2023-01-17T18:59:40.308Z,100.00
2023-01-17T19:02:25.527Z,100.00
2023-01-17T19:05:11.939Z,100.00
2023-01-17T19:07:57.450Z,100.00
2023-01-17T19:10:43.964Z,100.00
2023-01-17T19:13:30.009Z,100.00
2023-01-17T19:16:17.494Z,100.00
2023-01-17T19:19:08.944Z,100.00
2023-01-17T19:21:54.487Z,100.00
2023-01-17T19:24:40.733Z,100.00
2023-01-17T19:27:26.100Z,100.00
2023-01-17T19:30:12.129Z,100.00
2023-01-17T19:32:57.476Z,100.00
2023-01-17T19:35:42.663Z,100.00
2023-01-17T19:38:28.333Z,100.00
2023-01-17T19:41:15.137Z,100.00
2023-01-17T19:44:03.154Z,100.00
2023-01-17T19:46:48.912Z,100.00
2023-01-17T19:49:34.247Z,100.00
2023-01-17T19:52:19.605Z,100.00
2023-01-17T19:55:09.996Z,100.00
2023-01-17T19:57:55.753Z,100.00
2023-01-17T20:00:46.479Z,100.00
2023-01-17T20:03:32.369Z,100.00
2023-01-17T20:06:23.787Z,100.00
2023-01-17T20:09:09.064Z,100.00
2023-01-17T20:11:54.695Z,100.00
2023-01-17T20:14:39.949Z,100.00
2023-01-17T20:17:25.472Z,100.00
2023-01-17T20:20:12.909Z,100.00
2023-01-17T20:22:58.629Z,100.00
2023-01-17T20:25:52.953Z,100.00
2023-01-17T20:28:40.288Z,100.00
2023-01-17T20:31:26.639Z,100.00
2023-01-17T20:34:13.868Z,100.00
2023-01-17T20:36:59.567Z,100.00
2023-01-17T20:39:45.797Z,100.00
2023-01-17T20:42:31.185Z,100.00
2023-01-17T20:45:16.520Z,100.00
2023-01-17T20:48:01.853Z,100.00
2023-01-17T20:50:47.318Z,100.00
2023-01-17T20:53:36.195Z,100.00
2023-01-17T20:56:21.568Z,100.00
2023-01-17T20:59:09.489Z,100.00
2023-01-17T21:01:54.807Z,100.00
2023-01-17T21:04:40.377Z,100.00
2023-01-17T21:07:26.074Z,100.00
2023-01-17T21:10:11.777Z,100.00
2023-01-17T21:12:57.377Z,100.00
2023-01-17T21:15:48.217Z,100.00
2023-01-17T21:18:34.483Z,100.00
2023-01-17T21:21:26.432Z,100.00
2023-01-17T21:24:18.311Z,100.00
2023-01-17T21:27:03.945Z,100.00
2023-01-17T21:29:49.181Z,100.00
2023-01-17T21:32:34.611Z,100.00
2023-01-17T21:35:20.476Z,100.00
2023-01-17T21:38:05.749Z,100.00
2023-01-17T21:40:56.377Z,100.00
2023-01-17T21:43:42.162Z,100.00
2023-01-17T21:46:28.487Z,100.00
2023-01-17T21:49:14.033Z,100.00
2023-01-17T21:51:59.478Z,100.00
2023-01-17T21:55:03.794Z,100.00
2023-01-17T21:58:07.971Z,100.00
2023-01-17T22:01:07.657Z,100.00
2023-01-17T22:04:01.048Z,100.00
2023-01-17T22:06:46.512Z,100.00
2023-01-17T22:09:32.192Z,100.00
2023-01-17T22:12:17.927Z,100.00
2023-01-17T22:15:04.028Z,100.00
2023-01-17T22:17:49.602Z,100.00
2023-01-17T22:20:39.384Z,100.00
2023-01-17T22:23:24.970Z,100.00
2023-01-17T22:26:11.648Z,100.00
2023-01-17T22:29:00.575Z,100.00
2023-01-17T22:31:45.990Z,100.00
2023-01-17T22:34:31.593Z,100.00
2023-01-17T22:37:17.171Z,100.00
2023-01-17T22:40:04.789Z,100.00
2023-01-17T22:42:50.145Z,100.00
2023-01-17T22:45:35.725Z,100.00
2023-01-17T22:48:21.127Z,100.00
2023-01-17T22:51:09.705Z,100.00
2023-01-17T22:53:58.339Z,100.00
2023-01-17T22:56:44.014Z,100.00
2023-01-17T22:59:29.290Z,100.00
2023-01-17T23:02:16.586Z,100.00
2023-01-17T23:05:02.115Z,100.00
2023-01-17T23:07:49.908Z,100.00
2023-01-17T23:10:53.716Z,100.00
2023-01-17T23:13:39.173Z,100.00
2023-01-17T23:16:43.195Z,100.00
2023-01-17T23:19:31.697Z,100.00
2023-01-17T23:22:26.876Z,100.00
2023-01-17T23:25:14.145Z,100.00
2023-01-17T23:28:11.506Z,100.00
2023-01-17T23:31:03.027Z,100.00
2023-01-17T23:33:49.125Z,100.00
2023-01-17T23:36:34.734Z,100.00
2023-01-17T23:39:20.177Z,100.00
2023-01-17T23:42:23.864Z,100.00
2023-01-17T23:45:10.136Z,100.00
2023-01-17T23:47:55.635Z,100.00
2023-01-17T23:50:44.276Z,100.00
2023-01-17T23:53:29.575Z,100.00
2023-01-17T23:56:20.890Z,100.00
2023-01-17T23:59:06.459Z,100.00
